Groznyj, Russia
Current Conditions -  °F | °C
As of 6:00 AM on Thursday 23 Oct 2014 (Local Time) from URML Reporting Station
Scattered Clouds Scattered Clouds  
Wind Chill: 42°   Ceiling: Unl
Heat Index: 46°   Visibility: 6mi
Dew Point: 39°   Wind: 9mph
Humidity: 76%   Direction: 260°W
Pressure: 29.94"   Gusts: NA
Location:  43.31°N, 45.7°E
Report Text: URML 230300Z 26004MPS 9999 SCT100 08/04 Q1014 NOSIG RMKQFE760/1014
Loading
Personal Weather Stations






























Interactive Weather Map
Tropical Storm Tracking
New forecast layout! Learn more

10-Day Weather Forecast

Advertisements
Track Severe Weather on mobile